createdAt,value
2023-01-03T17:37:15.841Z,102242.75
2023-01-03T17:39:44.327Z,102256.00
2023-01-03T17:42:17.448Z,102261.25
2023-01-03T17:45:06.849Z,102252.25
2023-01-03T17:47:54.900Z,102243.53
2023-01-03T17:50:22.939Z,102230.97
2023-01-03T17:52:56.094Z,102228.63
2023-01-03T17:55:27.504Z,102230.13
2023-01-03T17:57:56.492Z,102238.56
2023-01-03T18:00:27.223Z,102230.44
2023-01-03T18:02:56.165Z,102229.50
2023-01-03T18:05:28.850Z,102237.41
2023-01-03T18:08:01.583Z,102230.19
2023-01-03T18:10:35.538Z,102225.13
2023-01-03T18:13:07.583Z,102206.38
2023-01-03T18:15:35.700Z,102206.47
2023-01-03T18:18:03.817Z,102210.56
2023-01-03T18:20:32.026Z,102205.31
2023-01-03T18:23:01.825Z,102207.06
2023-01-03T18:25:29.875Z,102207.94
2023-01-03T18:28:01.378Z,102215.41
2023-01-03T18:30:29.641Z,102186.66
2023-01-03T18:33:01.016Z,102203.03
2023-01-03T18:35:37.269Z,102204.78
2023-01-03T18:38:07.798Z,102183.78
2023-01-03T18:40:43.303Z,102197.53
2023-01-03T18:43:14.511Z,102181.69
2023-01-03T18:45:43.698Z,102191.97
2023-01-03T18:48:15.932Z,102191.06
2023-01-03T18:50:44.910Z,102181.16
2023-01-03T18:53:21.736Z,102164.75
2023-01-03T18:56:25.404Z,102156.50
2023-01-03T18:59:01.564Z,102182.69
2023-01-03T19:01:33.345Z,102158.88
2023-01-03T19:04:01.565Z,102175.53
2023-01-03T19:06:33.889Z,102165.00
2023-01-03T19:09:06.378Z,102174.69
2023-01-03T19:11:37.575Z,102163.97
2023-01-03T19:14:09.100Z,102153.22
2023-01-03T19:16:38.808Z,102131.84
2023-01-03T19:19:08.371Z,102140.47
2023-01-03T19:21:38.863Z,102134.00
2023-01-03T19:24:18.328Z,102131.13
2023-01-03T19:26:53.502Z,102113.22
2023-01-03T19:29:24.232Z,102115.19
2023-01-03T19:31:55.030Z,102107.34
2023-01-03T19:34:25.472Z,102116.72
2023-01-03T19:36:54.128Z,102125.63
2023-01-03T19:39:25.860Z,102119.69
2023-01-03T19:42:14.439Z,102111.41
2023-01-03T19:44:45.023Z,102108.81
2023-01-03T19:47:14.993Z,102104.94
2023-01-03T19:49:43.425Z,102092.66
2023-01-03T19:52:15.224Z,102102.34
2023-01-03T19:54:44.989Z,102104.94
2023-01-03T19:57:23.595Z,102104.56
2023-01-03T19:59:56.611Z,102084.38
2023-01-03T20:02:37.170Z,102076.84
2023-01-03T20:05:17.236Z,102083.63
2023-01-03T20:07:48.831Z,102079.16
2023-01-03T20:10:21.305Z,102069.41
2023-01-03T20:13:01.081Z,102069.97
2023-01-03T20:15:34.168Z,102060.06
2023-01-03T20:18:03.867Z,102055.19
2023-01-03T20:20:34.215Z,102058.47
2023-01-03T20:23:07.151Z,102056.56
2023-01-03T20:25:38.318Z,102046.53
2023-01-03T20:28:08.200Z,102042.19
2023-01-03T20:30:36.778Z,102024.59
2023-01-03T20:33:04.960Z,102044.69
2023-01-03T20:36:09.503Z,102019.94
2023-01-03T20:38:27.909Z,102009.13
2023-01-03T20:40:57.831Z,102009.03
2023-01-03T20:43:26.751Z,102000.59
